createdAt,value
2018-06-29T00:02:08.118Z,7.17
2018-06-29T00:04:43.492Z,7.63
2018-06-29T00:07:19.006Z,7.07
2018-06-29T00:09:54.542Z,7.97
2018-06-29T00:12:30.158Z,7.90
2018-06-29T00:15:05.657Z,7.67
2018-06-29T00:17:41.038Z,7.30
2018-06-29T00:20:16.306Z,7.67
2018-06-29T00:22:51.692Z,7.37
2018-06-29T00:25:27.136Z,7.70
2018-06-29T00:28:02.538Z,6.60
2018-06-29T00:30:38.010Z,7.77
2018-06-29T00:33:13.288Z,8.00
2018-06-29T00:35:48.482Z,7.00
2018-06-29T00:38:23.961Z,7.20
2018-06-29T00:40:59.494Z,8.63
2018-06-29T00:43:34.865Z,8.47
2018-06-29T00:46:10.435Z,7.20
2018-06-29T00:48:45.702Z,8.13
2018-06-29T00:51:21.124Z,6.47
2018-06-29T00:53:56.629Z,8.10
2018-06-29T00:56:32.096Z,6.13
2018-06-29T00:59:07.501Z,6.40
2018-06-29T01:01:43.031Z,6.87
2018-06-29T01:04:18.381Z,7.40
2018-06-29T01:06:53.809Z,6.07
2018-06-29T01:09:29.447Z,6.57
2018-06-29T01:12:04.799Z,6.53
2018-06-29T01:14:40.268Z,6.57
2018-06-29T01:17:15.795Z,8.00
2018-06-29T01:19:51.351Z,6.47
2018-06-29T01:22:26.945Z,6.53
2018-06-29T01:25:02.433Z,6.37
2018-06-29T01:27:37.884Z,6.07
2018-06-29T01:30:13.511Z,6.43
2018-06-29T01:32:48.911Z,6.40
2018-06-29T01:35:24.126Z,6.47
2018-06-29T01:37:59.903Z,6.27
2018-06-29T01:40:35.344Z,6.37
2018-06-29T01:43:10.877Z,6.20
2018-06-29T01:45:46.353Z,5.63
2018-06-29T01:48:21.882Z,5.60
2018-06-29T01:50:57.247Z,6.17
2018-06-29T01:53:32.459Z,5.80
2018-06-29T01:56:08.050Z,5.87
2018-06-29T01:58:43.294Z,5.73
2018-06-29T02:01:18.843Z,5.80
2018-06-29T02:03:54.302Z,5.27
2018-06-29T02:06:29.648Z,5.50
2018-06-29T02:09:07.649Z,5.23
2018-06-29T02:11:43.080Z,5.17
2018-06-29T02:14:18.625Z,5.60
2018-06-29T02:16:54.222Z,5.23
2018-06-29T02:19:29.798Z,5.10
2018-06-29T02:22:05.394Z,5.30
2018-06-29T02:24:40.959Z,6.07
2018-06-29T02:27:16.284Z,5.77
2018-06-29T02:29:51.658Z,5.93
2018-06-29T02:32:27.166Z,8.20
2018-06-29T02:35:02.527Z,5.90
2018-06-29T02:37:38.034Z,6.30
2018-06-29T02:40:13.651Z,5.63
2018-06-29T02:42:49.103Z,5.63
2018-06-29T02:45:24.639Z,5.67
2018-06-29T02:48:00.284Z,5.87
2018-06-29T02:50:36.282Z,6.20
2018-06-29T02:53:11.890Z,6.60
2018-06-29T02:58:49.521Z,7.40
2018-06-29T03:01:25.011Z,6.70
2018-06-29T03:04:00.796Z,6.87
2018-06-29T03:06:36.362Z,6.70
2018-06-29T03:09:11.984Z,6.80
2018-06-29T03:11:47.432Z,6.13
2018-06-29T03:14:22.976Z,7.17
2018-06-29T03:16:58.558Z,6.93
2018-06-29T03:19:33.954Z,7.07
2018-06-29T03:22:09.270Z,6.70
2018-06-29T03:24:44.510Z,6.97
2018-06-29T03:27:19.849Z,6.80
2018-06-29T03:29:55.241Z,7.13
2018-06-29T03:32:30.694Z,7.13
2018-06-29T03:35:06.412Z,7.33
2018-06-29T03:37:42.093Z,7.37
2018-06-29T03:40:17.925Z,7.10
2018-06-29T03:42:53.315Z,7.37
2018-06-29T03:45:28.691Z,7.47
2018-06-29T03:48:04.054Z,7.33
2018-06-29T03:50:39.612Z,7.53
2018-06-29T03:53:15.055Z,8.17
2018-06-29T03:55:50.541Z,7.57
2018-06-29T03:58:25.977Z,7.60
2018-06-29T04:01:01.376Z,7.30
2018-06-29T04:03:37.769Z,7.27
2018-06-29T04:06:13.327Z,7.70
2018-06-29T04:08:48.745Z,7.47
2018-06-29T04:11:24.293Z,7.37
2018-06-29T04:13:59.888Z,7.63
2018-06-29T04:16:36.247Z,7.97
2018-06-29T04:19:11.879Z,7.43
2018-06-29T04:21:47.293Z,7.53
2018-06-29T04:24:22.937Z,8.57
2018-06-29T04:26:58.430Z,7.23
2018-06-29T04:29:33.955Z,7.03
2018-06-29T04:32:09.642Z,8.00
2018-06-29T04:34:45.073Z,7.70
2018-06-29T04:37:20.691Z,7.60
2018-06-29T04:39:56.326Z,7.20
2018-06-29T04:42:32.399Z,7.07
2018-06-29T04:45:08.809Z,7.17
2018-06-29T04:47:44.346Z,7.97
2018-06-29T04:50:19.693Z,6.93
2018-06-29T04:52:55.218Z,7.53
2018-06-29T04:55:30.800Z,8.00
2018-06-29T04:58:06.239Z,7.13
2018-06-29T05:00:41.521Z,7.37
2018-06-29T05:03:17.229Z,7.40
2018-06-29T05:05:53.030Z,7.47
2018-06-29T05:08:28.394Z,8.23
2018-06-29T05:11:04.923Z,7.83
2018-06-29T05:13:40.728Z,7.90
2018-06-29T05:16:16.304Z,8.13
2018-06-29T05:18:51.934Z,8.20
2018-06-29T05:21:27.262Z,8.67
2018-06-29T05:24:03.094Z,8.60
2018-06-29T05:26:38.404Z,8.03
2018-06-29T05:29:13.956Z,9.00
2018-06-29T05:31:49.793Z,8.70
2018-06-29T05:34:25.375Z,8.93
2018-06-29T05:37:09.487Z,8.60
2018-06-29T05:39:45.375Z,8.67
2018-06-29T05:42:20.610Z,8.47
2018-06-29T05:44:56.262Z,8.90
2018-06-29T05:47:31.947Z,8.70
2018-06-29T05:50:08.297Z,8.57
2018-06-29T05:52:43.959Z,8.50
2018-06-29T05:55:19.757Z,9.23
2018-06-29T05:57:55.543Z,9.43
2018-06-29T06:00:31.186Z,9.47
2018-06-29T06:03:07.339Z,11.53
2018-06-29T06:05:43.161Z,9.07
2018-06-29T06:08:19.201Z,9.57
2018-06-29T06:10:54.940Z,9.90
2018-06-29T06:13:36.465Z,8.33
2018-06-29T06:16:12.476Z,8.30
2018-06-29T06:18:48.135Z,8.13
2018-06-29T06:21:23.865Z,8.27
2018-06-29T06:23:59.869Z,8.63
2018-06-29T06:26:35.833Z,8.07
2018-06-29T06:29:11.467Z,8.40
2018-06-29T06:31:47.275Z,7.90
2018-06-29T06:34:23.179Z,8.07
2018-06-29T06:36:58.971Z,8.00
2018-06-29T06:39:34.935Z,8.20
2018-06-29T06:42:11.035Z,8.37
2018-06-29T06:44:46.727Z,8.20
2018-06-29T06:47:22.800Z,8.33
2018-06-29T06:49:58.163Z,8.20
2018-06-29T06:52:34.207Z,7.50
2018-06-29T06:55:09.825Z,7.23
2018-06-29T06:57:46.363Z,8.00
2018-06-29T07:00:22.417Z,7.70
2018-06-29T07:02:58.553Z,7.73
2018-06-29T07:05:35.181Z,8.13
2018-06-29T07:08:12.249Z,7.63
2018-06-29T07:10:48.999Z,6.83
2018-06-29T07:13:24.853Z,7.83
2018-06-29T07:16:01.774Z,7.30
2018-06-29T07:18:38.763Z,7.50
2018-06-29T07:21:14.329Z,7.03
2018-06-29T07:23:50.383Z,7.03
2018-06-29T07:26:28.185Z,6.50
2018-06-29T07:29:03.949Z,6.07
2018-06-29T07:31:39.765Z,6.13
2018-06-29T07:34:16.323Z,6.50
2018-06-29T07:36:53.110Z,6.83
2018-06-29T07:39:29.168Z,5.27
2018-06-29T07:42:05.026Z,5.83
2018-06-29T07:44:42.078Z,5.63
2018-06-29T07:47:18.988Z,5.50
2018-06-29T07:50:00.458Z,5.53
2018-06-29T07:52:36.569Z,5.50
2018-06-29T07:55:12.838Z,5.77
2018-06-29T07:57:53.582Z,5.40
2018-06-29T08:00:31.730Z,5.43
2018-06-29T08:03:07.426Z,5.47
2018-06-29T08:05:43.158Z,5.23
2018-06-29T08:08:19.154Z,5.70
2018-06-29T08:10:55.174Z,5.47
2018-06-29T08:13:33.914Z,5.50
2018-06-29T08:16:10.721Z,4.97
2018-06-29T08:18:49.870Z,4.90
2018-06-29T08:21:27.661Z,5.13
2018-06-29T08:24:10.346Z,4.80
2018-06-29T08:26:49.954Z,4.90
2018-06-29T08:29:31.697Z,4.97
2018-06-29T08:32:11.307Z,4.17
2018-06-29T08:34:52.739Z,5.03
2018-06-29T08:37:39.469Z,5.97
2018-06-29T08:40:58.785Z,4.50
2018-06-29T08:51:29.467Z,3.93
2018-06-29T08:54:05.258Z,4.10
2018-06-29T08:56:42.187Z,4.53
2018-06-29T08:59:18.801Z,4.13
2018-06-29T09:01:55.753Z,3.80
2018-06-29T09:04:33.771Z,4.10
2018-06-29T09:07:09.619Z,3.97
2018-06-29T09:09:45.967Z,3.80
2018-06-29T09:12:22.545Z,3.83
2018-06-29T09:14:59.007Z,3.70
2018-06-29T09:17:36.243Z,3.47
2018-06-29T09:20:12.171Z,3.80
2018-06-29T09:22:49.577Z,3.57
2018-06-29T09:25:25.257Z,3.47
2018-06-29T09:28:02.295Z,3.60
2018-06-29T09:30:38.063Z,4.42
2018-06-29T09:33:14.081Z,3.35
2018-06-29T09:35:49.785Z,3.58
2018-06-29T09:38:25.605Z,3.75
2018-06-29T09:41:02.395Z,3.85
2018-06-29T09:43:38.393Z,3.37
2018-06-29T09:46:15.398Z,3.42
2018-06-29T09:48:52.891Z,3.60
2018-06-29T09:51:28.635Z,3.95
2018-06-29T09:54:04.330Z,3.02
2018-06-29T09:56:40.327Z,3.02
2018-06-29T09:59:17.438Z,3.35
2018-06-29T10:01:56.995Z,3.27
2018-06-29T10:04:32.554Z,3.08
2018-06-29T10:07:08.632Z,3.87
2018-06-29T10:09:58.131Z,3.00
2018-06-29T10:12:34.731Z,3.33
2018-06-29T10:15:10.007Z,3.55
2018-06-29T10:17:46.341Z,3.72
2018-06-29T10:20:23.167Z,3.40
2018-06-29T10:23:01.023Z,2.80
2018-06-29T10:25:37.958Z,2.98
2018-06-29T10:28:14.177Z,2.90
2018-06-29T10:30:49.945Z,3.27
2018-06-29T10:33:25.628Z,3.08
2018-06-29T10:36:01.036Z,3.25
2018-06-29T10:38:37.087Z,2.95
2018-06-29T10:41:15.185Z,3.08
2018-06-29T10:43:50.528Z,3.58
2018-06-29T10:46:26.203Z,3.00
2018-06-29T10:49:01.913Z,3.65
2018-06-29T10:51:37.503Z,3.45
2018-06-29T10:54:12.957Z,3.30
2018-06-29T10:56:48.559Z,3.55
2018-06-29T10:59:24.554Z,3.80
2018-06-29T11:02:06.057Z,3.60
2018-06-29T11:04:41.729Z,3.45
2018-06-29T11:07:17.407Z,3.35
2018-06-29T11:09:53.078Z,3.55
2018-06-29T11:12:46.245Z,3.37
2018-06-29T11:15:21.775Z,3.70
2018-06-29T11:17:57.479Z,3.98
2018-06-29T11:23:34.861Z,2.85
2018-06-29T11:26:10.387Z,2.90
2018-06-29T11:28:46.011Z,2.92
2018-06-29T11:31:21.752Z,3.30
2018-06-29T11:33:57.551Z,3.30
2018-06-29T11:36:33.403Z,3.17
2018-06-29T11:39:13.018Z,3.10
2018-06-29T11:41:48.720Z,3.60
2018-06-29T11:44:27.515Z,3.22
2018-06-29T11:47:03.113Z,2.80
2018-06-29T11:49:39.096Z,3.42
2018-06-29T11:52:14.773Z,3.45
2018-06-29T11:54:54.340Z,3.20
2018-06-29T11:57:29.868Z,4.33
2018-06-29T12:00:07.027Z,3.33
2018-06-29T12:02:42.959Z,3.20
2018-06-29T12:05:18.798Z,3.20
2018-06-29T12:07:54.640Z,3.70
2018-06-29T12:10:30.620Z,3.25
2018-06-29T12:13:06.797Z,3.20
2018-06-29T12:15:43.131Z,3.25
2018-06-29T12:18:19.077Z,3.08
2018-06-29T12:20:54.676Z,3.00
2018-06-29T12:23:30.497Z,3.22
2018-06-29T12:26:06.408Z,3.40
2018-06-29T12:28:42.498Z,3.37
2018-06-29T12:31:17.971Z,2.92
2018-06-29T12:33:53.642Z,4.53
2018-06-29T12:36:29.792Z,3.62
2018-06-29T12:39:10.193Z,3.17
2018-06-29T12:41:46.948Z,3.20
2018-06-29T12:44:22.856Z,3.27
2018-06-29T12:46:58.884Z,3.07
2018-06-29T12:49:34.841Z,2.70
2018-06-29T12:52:10.340Z,3.50
2018-06-29T12:54:46.121Z,3.15
2018-06-29T12:57:22.728Z,3.13
2018-06-29T12:59:58.809Z,2.80
2018-06-29T13:02:34.556Z,3.40
2018-06-29T13:05:10.070Z,4.12
2018-06-29T13:07:46.037Z,3.40
2018-06-29T13:10:21.580Z,3.00
2018-06-29T13:13:00.818Z,2.95
2018-06-29T13:15:36.673Z,3.22
2018-06-29T13:18:12.539Z,3.87
2018-06-29T13:20:52.811Z,3.92
2018-06-29T13:23:33.581Z,3.45
2018-06-29T13:26:09.962Z,3.12
2018-06-29T13:28:46.294Z,3.45
2018-06-29T13:31:23.001Z,4.03
2018-06-29T13:33:59.125Z,3.27
2018-06-29T13:36:35.085Z,2.90
2018-06-29T13:39:14.282Z,3.35
2018-06-29T13:41:49.959Z,4.85
2018-06-29T13:44:25.935Z,3.65
2018-06-29T13:47:01.671Z,3.08
2018-06-29T13:49:37.313Z,2.80
2018-06-29T13:52:15.512Z,3.83
2018-06-29T13:54:54.662Z,3.00
2018-06-29T13:57:33.774Z,4.20
2018-06-29T14:00:09.820Z,2.62
2018-06-29T14:02:46.125Z,3.10
2018-06-29T14:05:21.801Z,3.20
2018-06-29T14:07:57.183Z,3.00
2018-06-29T14:10:33.071Z,3.75
2018-06-29T14:13:10.445Z,3.00
2018-06-29T14:15:46.995Z,2.75
2018-06-29T14:18:22.637Z,3.15
2018-06-29T14:21:00.201Z,3.62
2018-06-29T14:23:36.093Z,4.40
2018-06-29T14:26:12.189Z,12.60
2018-06-29T14:28:48.329Z,5.50
2018-06-29T14:31:25.596Z,40.15
2018-06-29T14:34:04.328Z,16.95
2018-06-29T14:36:43.273Z,35.17
2018-06-29T14:39:42.891Z,18.98
2018-06-29T14:45:28.859Z,46.23
2018-06-29T14:48:04.464Z,10.68
2018-06-29T14:50:40.352Z,14.50
2018-06-29T14:53:15.835Z,5.33
2018-06-29T14:55:51.521Z,16.65
2018-06-29T14:58:27.611Z,7.42
2018-06-29T15:01:02.943Z,9.15
2018-06-29T15:03:38.726Z,3.77
2018-06-29T15:06:14.495Z,3.95
2018-06-29T15:08:50.076Z,2.52
2018-06-29T15:11:34.080Z,2.65
2018-06-29T15:14:10.082Z,2.45
2018-06-29T15:16:45.701Z,2.87
2018-06-29T15:19:27.386Z,2.77
2018-06-29T15:25:13.159Z,2.60
2018-06-29T15:27:50.946Z,2.98
2018-06-29T15:30:28.233Z,2.62
2018-06-29T15:33:04.934Z,3.30
2018-06-29T15:35:40.620Z,2.40
2018-06-29T15:38:17.335Z,2.92
2018-06-29T15:40:52.842Z,2.90
2018-06-29T15:43:28.184Z,3.35
2018-06-29T15:46:03.742Z,2.95
2018-06-29T15:48:39.375Z,3.33
2018-06-29T15:51:14.776Z,2.65
2018-06-29T15:53:51.057Z,2.75
2018-06-29T15:56:26.709Z,2.10
2018-06-29T15:59:02.118Z,3.85
2018-06-29T16:01:37.669Z,2.60
2018-06-29T16:04:13.185Z,8.18
2018-06-29T16:06:49.277Z,4.90
2018-06-29T16:09:25.930Z,2.80
2018-06-29T16:12:01.365Z,2.30
2018-06-29T16:14:36.996Z,3.72
2018-06-29T16:17:13.463Z,2.62
2018-06-29T16:19:48.982Z,2.62
2018-06-29T16:22:36.793Z,2.90
2018-06-29T16:25:14.184Z,2.40
2018-06-29T16:27:52.495Z,2.60
2018-06-29T16:30:36.420Z,2.85
2018-06-29T16:33:16.521Z,2.58
2018-06-29T16:35:54.238Z,2.70
2018-06-29T16:38:30.706Z,8.68
2018-06-29T16:41:07.301Z,3.00
2018-06-29T16:43:45.120Z,2.90
2018-06-29T16:46:22.020Z,2.20
2018-06-29T16:48:59.571Z,2.80
2018-06-29T16:51:39.108Z,3.20
2018-06-29T16:54:16.370Z,2.42
2018-06-29T16:56:52.402Z,2.37
2018-06-29T16:59:30.796Z,2.72
2018-06-29T17:02:06.670Z,2.75
2018-06-29T17:04:42.237Z,2.40
2018-06-29T17:07:17.800Z,2.72
2018-06-29T17:09:55.066Z,3.30
2018-06-29T17:12:30.744Z,3.00
2018-06-29T17:15:06.629Z,2.40
2018-06-29T17:17:42.220Z,3.17
2018-06-29T17:20:19.492Z,2.60
2018-06-29T17:22:55.136Z,2.87
2018-06-29T17:25:31.482Z,2.70
2018-06-29T17:28:07.505Z,2.60
2018-06-29T17:30:44.896Z,2.40
2018-06-29T17:33:32.047Z,3.10
2018-06-29T17:36:08.458Z,4.03
2018-06-29T17:38:44.954Z,2.70
2018-06-29T17:41:21.222Z,2.97
2018-06-29T17:43:56.827Z,2.03
2018-06-29T17:46:32.562Z,2.60
2018-06-29T17:49:08.233Z,2.23
2018-06-29T17:51:43.862Z,2.90
2018-06-29T17:54:19.560Z,2.37
2018-06-29T17:56:55.266Z,2.40
2018-06-29T17:59:30.969Z,2.63
2018-06-29T18:02:12.856Z,2.00
2018-06-29T18:04:51.143Z,2.60
2018-06-29T18:07:28.838Z,2.93
2018-06-29T18:10:16.106Z,2.27
2018-06-29T18:15:34.907Z,2.27
2018-06-29T18:18:12.690Z,2.17
2018-06-29T18:20:55.294Z,2.43
2018-06-29T18:23:31.540Z,2.37
2018-06-29T18:26:08.604Z,2.53
2018-06-29T18:28:46.952Z,2.50
2018-06-29T18:31:23.234Z,2.80
2018-06-29T18:33:59.200Z,4.87
2018-06-29T18:36:34.932Z,4.70
2018-06-29T18:39:13.250Z,2.90
2018-06-29T18:41:48.757Z,2.50
2018-06-29T18:44:24.422Z,2.40
2018-06-29T18:47:00.022Z,2.70
2018-06-29T18:49:36.202Z,2.80
2018-06-29T18:52:11.505Z,2.90
2018-06-29T18:54:46.775Z,2.27
2018-06-29T18:57:22.777Z,2.67
2018-06-29T18:59:59.772Z,2.90
2018-06-29T19:02:35.443Z,2.43
2018-06-29T19:05:11.132Z,3.17
2018-06-29T19:07:46.591Z,3.63
2018-06-29T19:10:22.242Z,2.77
2018-06-29T19:12:58.714Z,3.10
2018-06-29T19:15:34.975Z,3.87
2018-06-29T19:18:10.667Z,3.60
2018-06-29T19:20:46.261Z,3.27
2018-06-29T19:23:21.756Z,4.97
2018-06-29T19:25:57.783Z,4.23
2018-06-29T19:28:33.240Z,3.90
2018-06-29T19:31:08.931Z,3.80
2018-06-29T19:33:44.307Z,2.53
2018-06-29T19:36:19.669Z,3.10
2018-06-29T19:38:55.362Z,2.93
2018-06-29T19:41:30.731Z,4.00
2018-06-29T19:44:06.172Z,4.67
2018-06-29T19:46:41.547Z,2.90
2018-06-29T19:49:17.131Z,3.63
2018-06-29T19:51:52.642Z,3.97
2018-06-29T19:54:28.074Z,2.93
2018-06-29T19:57:03.547Z,3.27
2018-06-29T19:59:40.582Z,3.60
2018-06-29T20:02:15.946Z,3.73
2018-06-29T20:04:52.174Z,3.33
2018-06-29T20:07:28.007Z,3.47
2018-06-29T20:10:03.879Z,4.97
2018-06-29T20:12:39.976Z,5.20
2018-06-29T20:15:17.038Z,6.00
2018-06-29T20:17:52.714Z,4.50
2018-06-29T20:20:29.100Z,4.20
2018-06-29T20:23:10.032Z,4.30
2018-06-29T20:25:47.837Z,7.27
2018-06-29T20:28:23.726Z,6.73
2018-06-29T20:31:00.258Z,6.37
2018-06-29T20:33:37.129Z,6.57
2018-06-29T20:36:13.092Z,7.23
2018-06-29T20:38:49.563Z,6.13
2018-06-29T20:41:26.539Z,6.43
2018-06-29T20:44:02.314Z,6.50
2018-06-29T20:46:37.869Z,7.23
2018-06-29T20:49:14.198Z,4.50
2018-06-29T20:51:50.004Z,5.40
2018-06-29T20:54:25.730Z,4.93
2018-06-29T20:57:04.593Z,4.83
2018-06-29T20:59:40.720Z,5.27
2018-06-29T21:02:16.906Z,4.80
2018-06-29T21:04:52.561Z,4.23
2018-06-29T21:07:28.365Z,6.10
2018-06-29T21:10:04.045Z,6.60
2018-06-29T21:12:39.769Z,4.80
2018-06-29T21:15:15.362Z,5.20
2018-06-29T21:17:50.961Z,5.73
2018-06-29T21:20:26.196Z,5.50
2018-06-29T21:23:01.596Z,6.33
2018-06-29T21:25:37.009Z,6.13
2018-06-29T21:28:12.536Z,5.10
2018-06-29T21:30:48.101Z,5.63
2018-06-29T21:33:23.696Z,5.80
2018-06-29T21:38:43.518Z,5.50
2018-06-29T21:41:19.424Z,5.80
2018-06-29T21:43:55.018Z,5.37
2018-06-29T21:46:30.502Z,5.30
2018-06-29T21:49:12.897Z,5.90
2018-06-29T21:51:50.777Z,5.80
2018-06-29T21:54:27.171Z,5.93
2018-06-29T21:57:10.172Z,5.13
2018-06-29T21:59:46.971Z,6.53
2018-06-29T22:02:24.233Z,5.60
2018-06-29T22:05:04.383Z,6.10
2018-06-29T22:07:40.253Z,6.60
2018-06-29T22:10:15.892Z,6.03
2018-06-29T22:12:51.623Z,5.70
2018-06-29T22:15:27.502Z,6.40
2018-06-29T22:18:03.473Z,6.27
2018-06-29T22:20:39.235Z,5.43
2018-06-29T22:23:14.994Z,5.57
2018-06-29T22:25:50.371Z,5.80
2018-06-29T22:28:26.042Z,5.47
2018-06-29T22:31:01.836Z,7.30
2018-06-29T22:33:37.537Z,6.97
2018-06-29T22:36:13.397Z,7.13
2018-06-29T22:38:49.053Z,7.30
2018-06-29T22:41:24.711Z,6.93
2018-06-29T22:44:00.778Z,7.40
2018-06-29T22:46:46.203Z,6.73
2018-06-29T22:49:21.751Z,6.70
2018-06-29T22:51:57.324Z,6.10
2018-06-29T22:54:40.511Z,6.20
2018-06-29T22:57:16.059Z,6.63
2018-06-29T22:59:51.691Z,6.67
2018-06-29T23:02:27.341Z,6.83
2018-06-29T23:05:05.260Z,6.47
2018-06-29T23:07:49.995Z,6.60
2018-06-29T23:10:31.045Z,6.97
2018-06-29T23:13:13.123Z,6.73
2018-06-29T23:15:51.307Z,7.17
2018-06-29T23:18:27.374Z,6.87
2018-06-29T23:21:05.323Z,7.53
2018-06-29T23:23:44.171Z,7.40
2018-06-29T23:26:20.638Z,7.20
2018-06-29T23:28:56.241Z,7.33
2018-06-29T23:31:32.241Z,7.97
2018-06-29T23:34:13.244Z,7.10
2018-06-29T23:36:59.766Z,7.33
2018-06-29T23:39:38.730Z,7.50
2018-06-29T23:42:14.651Z,7.67
2018-06-29T23:44:50.350Z,8.00
2018-06-29T23:47:31.044Z,7.43
2018-06-29T23:50:06.494Z,7.83
2018-06-29T23:52:41.836Z,7.97
2018-06-29T23:55:17.460Z,8.20
2018-06-29T23:57:53.014Z,7.90
